createdAt,value
2022-11-15T00:02:22.039Z,21.41
2022-11-15T00:07:55.279Z,21.42
2022-11-15T00:13:16.452Z,21.44
2022-11-15T00:18:37.203Z,21.43
2022-11-15T00:23:57.804Z,21.44
2022-11-15T00:29:18.399Z,21.43
2022-11-15T00:34:39.330Z,21.44
2022-11-15T00:40:00.215Z,21.43
2022-11-15T00:45:21.042Z,21.44
2022-11-15T00:50:41.943Z,21.45
2022-11-15T00:56:02.323Z,21.44
2022-11-15T01:01:23.136Z,21.39
2022-11-15T01:06:44.196Z,21.45
2022-11-15T01:12:05.221Z,21.45
2022-11-15T01:17:26.364Z,21.44
2022-11-15T01:22:47.001Z,21.45
2022-11-15T01:28:07.613Z,21.43
2022-11-15T01:33:30.253Z,21.40
2022-11-15T01:38:58.972Z,21.38
2022-11-15T01:44:35.053Z,21.41
2022-11-15T01:50:17.466Z,21.41
2022-11-15T01:55:38.875Z,21.40
2022-11-15T02:00:59.618Z,21.37
2022-11-15T02:06:21.451Z,21.39
2022-11-15T02:11:42.890Z,21.41
2022-11-15T02:17:06.307Z,21.43
2022-11-15T02:22:52.166Z,21.37
2022-11-15T02:28:40.611Z,21.38
2022-11-15T02:34:18.911Z,21.39
2022-11-15T02:39:45.476Z,21.41
2022-11-15T02:45:11.049Z,21.40
2022-11-15T02:50:34.168Z,21.38
2022-11-15T02:55:57.239Z,21.38
2022-11-15T03:01:47.964Z,21.40
2022-11-15T03:07:15.369Z,21.39
2022-11-15T03:13:01.125Z,21.36
2022-11-15T03:18:26.754Z,21.35
2022-11-15T03:23:50.064Z,21.37
2022-11-15T03:29:23.686Z,21.38
2022-11-15T03:35:07.950Z,21.39
2022-11-15T03:40:40.745Z,21.37
2022-11-15T03:46:12.207Z,21.36
2022-11-15T03:51:33.243Z,21.37
2022-11-15T03:56:53.963Z,21.37
2022-11-15T04:02:14.950Z,21.39
2022-11-15T04:07:35.943Z,21.37
2022-11-15T04:12:56.653Z,21.36
2022-11-15T04:18:17.424Z,21.37
2022-11-15T04:24:07.590Z,21.35
2022-11-15T04:29:37.283Z,21.38
2022-11-15T04:34:57.640Z,21.37
2022-11-15T04:40:18.036Z,21.35
2022-11-15T04:45:38.519Z,21.36
2022-11-15T04:50:59.277Z,21.37
2022-11-15T04:56:20.278Z,21.37
2022-11-15T05:01:44.837Z,21.36
2022-11-15T05:07:05.907Z,21.35
2022-11-15T05:12:26.491Z,21.36
2022-11-15T05:17:47.008Z,21.36
2022-11-15T05:23:07.393Z,21.37
2022-11-15T05:28:28.677Z,21.35
2022-11-15T05:33:50.869Z,21.35
2022-11-15T05:39:11.801Z,21.36
2022-11-15T05:44:33.415Z,21.37
2022-11-15T05:49:55.077Z,21.37
2022-11-15T05:55:16.187Z,21.36
2022-11-15T06:00:37.083Z,21.35
2022-11-15T06:05:58.157Z,21.36
2022-11-15T06:11:19.168Z,21.37
2022-11-15T06:16:39.982Z,21.37
2022-11-15T06:22:01.146Z,21.32
2022-11-15T06:27:21.757Z,21.36
2022-11-15T06:32:42.424Z,21.35
2022-11-15T06:38:05.886Z,21.36
2022-11-15T06:43:26.318Z,21.36
2022-11-15T06:48:47.135Z,21.33
2022-11-15T06:54:07.606Z,21.34
2022-11-15T06:59:27.942Z,21.35
2022-11-15T07:04:48.682Z,21.36
2022-11-15T07:10:09.854Z,21.36
2022-11-15T07:15:30.512Z,21.32
2022-11-15T07:20:50.936Z,21.33
2022-11-15T07:26:11.485Z,21.34
2022-11-15T07:31:32.100Z,21.36
2022-11-15T07:36:52.837Z,21.33
2022-11-15T07:42:32.327Z,21.33
2022-11-15T07:47:53.731Z,21.35
2022-11-15T07:53:14.405Z,21.36
2022-11-15T07:58:34.907Z,21.37
2022-11-15T08:03:55.721Z,21.33
2022-11-15T08:09:16.419Z,21.33
2022-11-15T08:14:37.214Z,21.34
2022-11-15T08:19:58.981Z,21.36
2022-11-15T08:25:19.649Z,21.35
2022-11-15T08:30:43.302Z,21.32
2022-11-15T08:36:04.249Z,21.34
2022-11-15T08:41:27.784Z,21.35
2022-11-15T08:46:48.487Z,21.35
2022-11-15T08:52:09.387Z,21.34
2022-11-15T08:57:31.552Z,21.35
2022-11-15T09:02:52.180Z,21.35
2022-11-15T09:08:45.628Z,21.36
2022-11-15T09:13:54.808Z,21.36
2022-11-15T09:19:15.906Z,21.35
2022-11-15T09:24:36.556Z,21.36
2022-11-15T09:29:57.445Z,21.35
2022-11-15T09:35:18.231Z,21.38
2022-11-15T09:40:39.400Z,21.37
2022-11-15T09:46:15.443Z,21.35
2022-11-15T09:51:47.908Z,21.37
2022-11-15T09:56:53.389Z,21.38
2022-11-15T10:02:10.858Z,21.38
2022-11-15T10:07:28.413Z,21.38
2022-11-15T10:12:32.557Z,21.37
2022-11-15T10:18:02.192Z,21.38
2022-11-15T10:23:11.572Z,21.40
2022-11-15T10:28:29.843Z,21.39
2022-11-15T10:33:35.298Z,21.32
2022-11-15T10:38:54.043Z,21.39
2022-11-15T10:44:08.198Z,21.41
2022-11-15T10:49:19.101Z,21.41
2022-11-15T10:54:31.034Z,21.40
2022-11-15T10:59:39.219Z,21.39
2022-11-15T11:04:52.357Z,21.40
2022-11-15T11:10:49.351Z,21.41
2022-11-15T11:15:46.645Z,21.41
2022-11-15T11:21:09.600Z,21.41
2022-11-15T11:26:54.242Z,21.42
2022-11-15T11:32:19.124Z,21.44
2022-11-15T11:37:45.391Z,21.43
2022-11-15T11:43:13.144Z,21.43
2022-11-15T11:48:41.239Z,21.42
2022-11-15T11:54:27.811Z,21.44
2022-11-15T11:59:49.773Z,21.43
2022-11-15T12:04:57.890Z,21.45
2022-11-15T12:10:06.977Z,21.44
2022-11-15T12:15:26.239Z,21.44
2022-11-15T12:20:34.283Z,21.48
2022-11-15T12:26:17.144Z,21.46
2022-11-15T12:31:31.320Z,21.45
2022-11-15T12:36:41.906Z,21.45
2022-11-15T12:41:46.372Z,21.46
2022-11-15T12:46:48.316Z,21.48
2022-11-15T12:51:50.267Z,21.48
2022-11-15T12:57:04.431Z,21.47
2022-11-15T13:02:23.270Z,21.47
2022-11-15T13:07:43.237Z,21.49
2022-11-15T13:12:45.353Z,21.50
2022-11-15T13:17:55.083Z,21.50
2022-11-15T13:23:05.840Z,21.46
2022-11-15T13:28:16.864Z,21.48
2022-11-15T13:33:34.543Z,21.49
2022-11-15T13:38:40.227Z,21.52
2022-11-15T13:43:42.216Z,21.49
2022-11-15T13:48:46.223Z,21.49
2022-11-15T13:54:08.129Z,21.50
2022-11-15T13:59:29.320Z,21.51
2022-11-15T14:04:34.986Z,21.51
2022-11-15T14:09:41.271Z,21.50
2022-11-15T14:14:47.725Z,21.51
2022-11-15T14:19:49.697Z,21.52
2022-11-15T14:25:18.944Z,21.52
2022-11-15T14:30:21.065Z,21.53
2022-11-15T14:35:24.596Z,21.52
2022-11-15T14:40:26.749Z,21.53
2022-11-15T14:45:29.197Z,21.55
2022-11-15T14:50:32.908Z,21.55
2022-11-15T14:55:37.314Z,21.53
2022-11-15T15:00:41.388Z,21.53
2022-11-15T15:05:45.069Z,21.53
2022-11-15T15:10:47.533Z,21.57
2022-11-15T15:15:50.941Z,21.55
2022-11-15T15:21:01.160Z,21.55
2022-11-15T15:26:03.654Z,21.55
2022-11-15T15:31:06.202Z,21.57
2022-11-15T15:36:18.256Z,21.57
2022-11-15T15:41:20.445Z,21.57
2022-11-15T15:46:22.522Z,21.56
2022-11-15T15:51:24.681Z,21.57
2022-11-15T15:56:26.844Z,21.57
2022-11-15T16:01:29.031Z,21.58
2022-11-15T16:06:37.323Z,21.54
2022-11-15T16:11:39.399Z,21.58
2022-11-15T16:16:41.623Z,21.57
2022-11-15T16:21:43.730Z,21.58
2022-11-15T16:26:48.011Z,21.55
2022-11-15T16:31:50.090Z,21.58
2022-11-15T16:36:52.637Z,21.58
2022-11-15T16:41:54.800Z,21.58
2022-11-15T16:46:56.831Z,21.59
2022-11-15T16:51:58.961Z,21.58
2022-11-15T16:57:00.932Z,21.59
2022-11-15T17:02:03.032Z,21.58
2022-11-15T17:07:05.094Z,21.60
2022-11-15T17:12:07.120Z,21.60
2022-11-15T17:17:10.314Z,21.58
2022-11-15T17:22:12.454Z,21.60
2022-11-15T17:27:15.431Z,21.61
2022-11-15T17:32:17.434Z,21.61
2022-11-15T17:37:19.516Z,21.59
2022-11-15T17:42:21.553Z,21.59
2022-11-15T17:47:23.586Z,21.61
2022-11-15T17:52:25.657Z,21.61
2022-11-15T17:57:27.729Z,21.61
2022-11-15T18:02:30.789Z,21.59
2022-11-15T18:07:33.016Z,21.59
2022-11-15T18:12:35.117Z,21.61
2022-11-15T18:17:37.796Z,21.61
2022-11-15T18:22:39.923Z,21.59
2022-11-15T18:27:42.638Z,21.60
2022-11-15T18:32:44.803Z,21.61
2022-11-15T18:37:46.862Z,21.61
2022-11-15T18:42:49.940Z,21.60
2022-11-15T18:47:51.998Z,21.60
2022-11-15T18:52:54.025Z,21.60
2022-11-15T18:57:56.854Z,21.62
2022-11-15T19:02:58.909Z,21.55
2022-11-15T19:08:01.153Z,21.54
2022-11-15T19:13:03.331Z,21.59
2022-11-15T19:18:05.419Z,21.61
2022-11-15T19:23:07.612Z,21.62
2022-11-15T19:28:09.903Z,21.61
2022-11-15T19:33:11.957Z,21.60
2022-11-15T19:38:14.723Z,21.59
2022-11-15T19:43:17.512Z,21.62
2022-11-15T19:48:19.598Z,21.62
2022-11-15T19:53:23.703Z,21.60
2022-11-15T19:58:29.771Z,21.59
2022-11-15T20:03:35.120Z,21.60
2022-11-15T20:08:37.852Z,21.62
2022-11-15T20:13:40.794Z,21.62
2022-11-15T20:18:43.170Z,21.60
2022-11-15T20:23:47.956Z,21.60
2022-11-15T20:28:50.147Z,21.61
2022-11-15T20:33:52.179Z,21.62
2022-11-15T20:38:59.378Z,21.62
2022-11-15T20:44:03.290Z,21.61
2022-11-15T20:49:06.712Z,21.60
2022-11-15T20:54:09.344Z,21.62
2022-11-15T20:59:11.454Z,21.63
2022-11-15T21:04:13.632Z,21.61
2022-11-15T21:09:34.214Z,21.61
2022-11-15T21:14:36.369Z,21.61
2022-11-15T21:19:38.470Z,21.61
2022-11-15T21:24:41.368Z,21.62
2022-11-15T21:29:45.890Z,21.60
2022-11-15T21:34:48.155Z,21.59
2022-11-15T21:39:50.126Z,21.57
2022-11-15T21:44:52.178Z,21.58
2022-11-15T21:49:54.367Z,21.61
2022-11-15T21:54:56.426Z,21.61
2022-11-15T22:00:16.953Z,21.61
2022-11-15T22:05:19.005Z,21.59
2022-11-15T22:10:21.414Z,21.59
2022-11-15T22:15:23.491Z,21.61
2022-11-15T22:20:44.127Z,21.61
2022-11-15T22:25:47.077Z,21.60
2022-11-15T22:30:51.584Z,21.58
2022-11-15T22:35:53.793Z,21.61
2022-11-15T22:40:56.265Z,21.61
2022-11-15T22:46:00.105Z,21.60
2022-11-15T22:51:02.786Z,21.60
2022-11-15T22:56:06.511Z,21.58
2022-11-15T23:01:20.106Z,21.60
2022-11-15T23:06:22.366Z,21.61
2022-11-15T23:11:43.010Z,21.61
2022-11-15T23:16:45.112Z,21.58
2022-11-15T23:22:06.167Z,21.59
2022-11-15T23:27:08.550Z,21.59
2022-11-15T23:32:29.094Z,21.61
2022-11-15T23:37:31.255Z,21.60
2022-11-15T23:42:33.327Z,21.58
2022-11-15T23:47:35.663Z,21.59
2022-11-15T23:52:37.743Z,21.60
2022-11-15T23:57:39.906Z,21.60
